Time;durP1;ratioP1;P1;durP2;ratioP2;P2;SDS_P1;SDS_P2;PMS_P1;PMS_P2;Temp;Humidity;BMP_temperature;BMP_pressure;BME280_temperature;BME280_humidity;BME280_pressure;Samples;Min_cycle;Max_cycle;Signal;HPM_P1;HPM_P2
2023/08/24 00:01:08;;;;;;;3.08;2.10;;;20.50;74.10;;;;;;5058668;28;20060;-68
2023/08/24 00:03:34;;;;;;;4.93;2.38;;;20.50;74.30;;;;;;5057360;28;20032;-68
2023/08/24 00:06:00;;;;;;;2.58;2.03;;;20.50;74.30;;;;;;5059778;28;20033;-68
2023/08/24 00:08:26;;;;;;;3.65;2.10;;;20.50;74.10;;;;;;5058783;28;20032;-68
2023/08/24 00:10:52;;;;;;;5.70;2.65;;;20.60;74.10;;;;;;5060139;28;20055;-69
2023/08/24 00:13:18;;;;;;;3.53;2.15;;;20.50;74.60;;;;;;5060661;28;20020;-69
2023/08/24 00:15:45;;;;;;;4.85;2.90;;;20.50;74.70;;;;;;5057233;28;20107;-69
2023/08/24 00:18:10;;;;;;;3.85;2.30;;;20.50;74.80;;;;;;5058422;28;20016;-68
2023/08/24 00:20:37;;;;;;;4.38;2.63;;;20.50;74.70;;;;;;5058869;28;20098;-68
2023/08/24 00:23:03;;;;;;;5.90;2.50;;;20.50;75.00;;;;;;5057887;28;20029;-68
2023/08/24 00:25:29;;;;;;;2.13;1.90;;;20.50;75.00;;;;;;5056867;28;20124;-68
2023/08/24 00:27:56;;;;;;;3.45;2.22;;;20.50;74.90;;;;;;5058112;28;20029;-68
2023/08/24 00:30:21;;;;;;;5.68;2.78;;;20.50;74.90;;;;;;5058469;28;20619;-68
2023/08/24 00:32:47;;;;;;;4.32;2.72;;;20.40;75.40;;;;;;5055950;28;20032;-69
2023/08/24 00:35:13;;;;;;;4.28;2.65;;;20.40;75.60;;;;;;5057097;28;20487;-68
2023/08/24 00:37:39;;;;;;;5.88;3.40;;;20.40;76.00;;;;;;5055735;28;20099;-68
2023/08/24 00:40:09;;;;;;;5.40;2.78;;;20.40;76.00;;;;;;5056413;28;20035;-68
2023/08/24 00:42:43;;;;;;;5.47;2.78;;;20.30;76.20;;;;;;5056382;28;20029;-68
2023/08/24 00:45:10;;;;;;;4.25;2.65;;;20.30;76.30;;;;;;5056547;28;20032;-68
2023/08/24 00:47:40;;;;;;;3.60;2.40;;;20.30;76.30;;;;;;5059821;28;20110;-68
2023/08/24 00:50:08;;;;;;;5.93;2.97;;;20.30;76.20;;;;;;5058026;28;20045;-68
2023/08/24 00:52:34;;;;;;;3.83;2.92;;;20.30;76.50;;;;;;5057509;28;20032;-68
2023/08/24 00:55:00;;;;;;;4.05;2.97;;;20.30;76.50;;;;;;5060225;28;20181;-68
2023/08/24 00:57:27;;;;;;;3.05;2.30;;;20.30;76.40;;;;;;5063564;28;20428;-68
2023/08/24 00:59:54;;;;;;;6.03;3.00;;;20.30;76.40;;;;;;5062163;28;20024;-69
2023/08/24 01:02:19;;;;;;;5.90;3.63;;;20.30;76.60;;;;;;5058717;28;20394;-69
2023/08/24 01:04:47;;;;;;;6.60;4.22;;;20.30;77.10;;;;;;5058413;28;20043;-69
2023/08/24 01:07:13;;;;;;;4.63;3.63;;;20.30;77.30;;;;;;5061025;28;20072;-69
2023/08/24 01:09:39;;;;;;;6.65;3.70;;;20.30;77.50;;;;;;5060054;28;20073;-69
2023/08/24 01:12:29;;;;;;;5.65;3.35;;;20.20;77.90;;;;;;5061704;28;20048;-69
2023/08/24 01:15:07;;;;;;;4.95;3.30;;;20.20;78.10;;;;;;5062908;28;21222;-69
2023/08/24 01:17:35;;;;;;;5.60;3.90;;;20.20;78.30;;;;;;5060627;28;20012;-69
2023/08/24 01:20:04;;;;;;;7.75;4.25;;;20.20;79.00;;;;;;5057675;28;20112;-71
2023/08/24 01:22:43;;;;;;;4.82;3.72;;;20.20;79.60;;;;;;5057695;28;20024;-71
2023/08/24 01:25:44;;;;;;;7.72;4.90;;;20.20;79.50;;;;;;5057762;28;20574;-69
2023/08/24 01:28:12;;;;;;;6.90;4.10;;;20.20;79.70;;;;;;5054963;28;20045;-70
2023/08/24 01:30:38;;;;;;;5.85;4.18;;;20.20;79.90;;;;;;5057449;28;20017;-68
2023/08/24 01:33:04;;;;;;;5.68;3.80;;;20.20;79.90;;;;;;5059346;28;20043;-68
2023/08/24 01:35:31;;;;;;;6.38;4.05;;;20.20;80.10;;;;;;5059260;28;20020;-68
2023/08/24 01:38:02;;;;;;;8.45;4.85;;;20.20;80.30;;;;;;5057821;28;20052;-68
2023/08/24 01:40:59;;;;;;;8.07;5.25;;;20.20;80.60;;;;;;5058405;28;20067;-68
2023/08/24 01:43:33;;;;;;;7.38;4.90;;;20.20;81.00;;;;;;5057943;28;20016;-68
2023/08/24 01:46:02;;;;;;;7.95;5.32;;;20.10;81.60;;;;;;5059719;28;20128;-69
2023/08/24 01:48:28;;;;;;;7.63;4.85;;;20.10;81.60;;;;;;5059356;28;20053;-69
2023/08/24 01:50:54;;;;;;;5.28;3.83;;;20.10;81.50;;;;;;5057301;28;20036;-68
2023/08/24 01:53:20;;;;;;;8.15;5.05;;;20.10;81.40;;;;;;5058554;28;20418;-68
2023/08/24 01:55:46;;;;;;;7.22;4.60;;;20.20;81.60;;;;;;5060176;28;20039;-69
2023/08/24 01:58:11;;;;;;;6.63;4.75;;;20.10;81.60;;;;;;5058546;28;20055;-68
2023/08/24 02:00:38;;;;;;;5.85;4.65;;;20.10;81.70;;;;;;5053995;28;20115;-68
2023/08/24 02:03:04;;;;;;;8.10;4.65;;;20.10;81.80;;;;;;5058671;28;20031;-69
2023/08/24 02:05:29;;;;;;;7.07;4.50;;;20.10;81.80;;;;;;5059744;28;20033;-69
2023/08/24 02:07:55;;;;;;;6.82;4.85;;;20.10;81.80;;;;;;5056541;28;20056;-70
2023/08/24 02:10:20;;;;;;;7.18;4.63;;;20.10;81.90;;;;;;5056271;28;20040;-69
2023/08/24 02:12:46;;;;;;;6.28;4.10;;;20.10;81.80;;;;;;5055377;28;20063;-67
2023/08/24 02:15:11;;;;;;;6.30;4.80;;;20.10;81.70;;;;;;5057437;28;20115;-68
2023/08/24 02:17:37;;;;;;;6.82;4.50;;;20.10;81.80;;;;;;5058602;28;20024;-68
2023/08/24 02:20:03;;;;;;;3.97;3.03;;;20.20;81.50;;;;;;5057051;28;21298;-68
2023/08/24 02:22:30;;;;;;;8.20;4.90;;;20.20;81.20;;;;;;5056238;28;20032;-68
2023/08/24 02:24:55;;;;;;;7.25;3.78;;;20.20;81.40;;;;;;5056791;28;20085;-66
2023/08/24 02:27:21;;;;;;;5.80;3.60;;;20.20;81.40;;;;;;5059224;28;20433;-68
2023/08/24 02:29:47;;;;;;;6.95;4.70;;;20.20;81.30;;;;;;5058437;28;20438;-67
2023/08/24 02:32:12;;;;;;;7.60;4.68;;;20.30;81.40;;;;;;5056103;28;20048;-68
2023/08/24 02:34:38;;;;;;;5.70;4.05;;;20.30;81.20;;;;;;5060490;28;20028;-69
2023/08/24 02:37:04;;;;;;;5.82;4.90;;;20.30;80.90;;;;;;5058134;28;20025;-69
2023/08/24 02:39:30;;;;;;;6.35;3.97;;;20.30;81.20;;;;;;5057592;28;20064;-67
2023/08/24 02:41:55;;;;;;;10.32;4.20;;;20.30;81.30;;;;;;5055758;28;20533;-67
2023/08/24 02:44:21;;;;;;;7.15;4.10;;;20.30;81.20;;;;;;5058427;28;20040;-66
2023/08/24 02:46:48;;;;;;;4.60;3.55;;;20.30;81.10;;;;;;5057299;28;20071;-69
2023/08/24 02:49:14;;;;;;;7.13;4.43;;;20.30;80.90;;;;;;5056790;28;20032;-65
2023/08/24 02:51:40;;;;;;;11.00;5.50;;;20.40;80.90;;;;;;5056972;28;20043;-70
2023/08/24 02:54:06;;;;;;;7.47;5.38;;;20.30;81.30;;;;;;5056392;28;20111;-68
2023/08/24 02:56:31;;;;;;;6.18;4.88;;;20.20;81.90;;;;;;5057697;28;20170;-69
2023/08/24 02:58:57;;;;;;;7.53;4.70;;;20.10;82.40;;;;;;5055062;28;20028;-67
2023/08/24 03:01:23;;;;;;;6.45;5.25;;;20.10;82.50;;;;;;5055821;28;20033;-69
2023/08/24 03:03:49;;;;;;;6.88;4.55;;;20.00;82.80;;;;;;5056138;28;20028;-67
2023/08/24 03:06:15;;;;;;;6.80;4.45;;;20.10;82.70;;;;;;5059020;28;20042;-68
2023/08/24 03:08:40;;;;;;;8.25;5.63;;;20.10;82.60;;;;;;5054589;28;20032;-71
2023/08/24 03:11:06;;;;;;;8.48;5.10;;;20.00;84.00;;;;;;5055415;28;20028;-69
2023/08/24 03:13:32;;;;;;;6.55;4.78;;;19.90;83.70;;;;;;5057468;28;20165;-70
2023/08/24 03:16:02;;;;;;;5.90;4.93;;;19.90;83.80;;;;;;5059475;28;20029;-70
2023/08/24 03:18:28;;;;;;;6.22;4.80;;;19.90;84.10;;;;;;5056686;28;20487;-69
2023/08/24 03:20:53;;;;;;;7.95;5.25;;;19.90;84.10;;;;;;5058244;28;20036;-71
2023/08/24 03:23:19;;;;;;;8.05;4.78;;;19.90;84.40;;;;;;5058995;28;20536;-71
2023/08/24 03:25:44;;;;;;;6.88;4.75;;;19.90;84.50;;;;;;5061430;28;20438;-70
2023/08/24 03:28:10;;;;;;;6.82;5.07;;;19.80;84.70;;;;;;5059839;28;20040;-70
2023/08/24 03:30:38;;;;;;;7.65;5.53;;;19.80;85.60;;;;;;5060381;28;20140;-68
2023/08/24 03:33:04;;;;;;;8.57;5.90;;;19.80;85.30;;;;;;5059290;28;20060;-70
2023/08/24 03:35:33;;;;;;;10.35;6.40;;;19.70;85.70;;;;;;5061644;28;20098;-68
2023/08/24 03:37:59;;;;;;;6.28;5.05;;;19.70;86.10;;;;;;5061163;28;20060;-70
2023/08/24 03:40:24;;;;;;;9.30;6.30;;;19.60;86.10;;;;;;5057007;28;21839;-68
2023/08/24 03:42:50;;;;;;;7.10;5.00;;;19.60;86.30;;;;;;5059782;28;20083;-69
2023/08/24 03:45:16;;;;;;;7.63;4.78;;;19.60;86.50;;;;;;5062327;28;20029;-69
2023/08/24 03:47:42;;;;;;;8.80;5.35;;;19.60;86.40;;;;;;5061889;28;20063;-69
2023/08/24 03:50:08;;;;;;;6.75;5.07;;;19.60;86.40;;;;;;5061150;28;20032;-70
2023/08/24 03:52:34;;;;;;;7.40;5.93;;;19.60;86.50;;;;;;5060104;28;20032;-71
2023/08/24 03:54:59;;;;;;;8.07;5.63;;;19.50;86.70;;;;;;5060127;28;20024;-71
2023/08/24 03:57:25;;;;;;;6.88;4.90;;;19.50;87.00;;;;;;5063261;28;20028;-71
2023/08/24 03:59:50;;;;;;;6.97;5.75;;;19.50;86.90;;;;;;5059122;28;20032;-69
2023/08/24 04:02:16;;;;;;;14.10;8.48;;;19.50;86.90;;;;;;5061157;28;20426;-69
2023/08/24 04:04:42;;;;;;;9.75;7.07;;;19.40;87.00;;;;;;5061468;28;20119;-69
2023/08/24 04:07:08;;;;;;;13.80;8.63;;;19.40;87.30;;;;;;5061304;28;20047;-70
2023/08/24 04:09:33;;;;;;;8.55;6.00;;;19.40;87.70;;;;;;5060908;28;20024;-69
2023/08/24 04:11:59;;;;;;;6.20;5.47;;;19.40;87.80;;;;;;5059417;28;21268;-68
2023/08/24 04:14:24;;;;;;;8.05;5.90;;;19.40;87.90;;;;;;5060622;28;20024;-69
2023/08/24 04:16:50;;;;;;;10.55;6.78;;;19.30;88.00;;;;;;5060088;28;20499;-70
2023/08/24 04:19:15;;;;;;;9.48;6.07;;;19.30;88.10;;;;;;5061878;28;20025;-68
2023/08/24 04:21:41;;;;;;;9.07;6.43;;;19.30;88.20;;;;;;5060953;28;20028;-71
2023/08/24 04:24:07;;;;;;;8.10;5.53;;;19.30;88.50;;;;;;5058608;28;20040;-69
2023/08/24 04:26:32;;;;;;;8.95;5.65;;;19.30;88.40;;;;;;5060521;28;20078;-71
2023/08/24 04:28:58;;;;;;;10.05;6.10;;;19.30;88.40;;;;;;5057055;28;20518;-70
2023/08/24 04:31:24;;;;;;;7.57;5.38;;;19.30;88.20;;;;;;5059645;28;20048;-71
2023/08/24 04:33:49;;;;;;;7.82;5.68;;;19.30;88.30;;;;;;5058014;28;20054;-67
2023/08/24 04:36:15;;;;;;;11.40;7.07;;;19.30;88.50;;;;;;5059836;28;20414;-70
2023/08/24 04:38:40;;;;;;;9.75;6.97;;;19.30;88.70;;;;;;5050213;28;20065;-69
2023/08/24 04:41:08;;;;;;;13.18;6.97;;;19.20;88.80;;;;;;5057328;28;20100;-69
2023/08/24 04:43:36;;;;;;;10.43;7.22;;;19.20;88.90;;;;;;5058849;28;20036;-69
2023/08/24 04:46:02;;;;;;;9.68;6.40;;;19.30;88.90;;;;;;5058972;28;20491;-70
2023/08/24 04:48:32;;;;;;;7.70;6.20;;;19.20;89.10;;;;;;5060855;28;20048;-71
2023/08/24 04:50:58;;;;;;;9.02;6.93;;;19.20;89.10;;;;;;5053931;28;20120;-70
2023/08/24 04:53:24;;;;;;;6.40;5.65;;;19.30;89.10;;;;;;5051987;28;20410;-68
2023/08/24 04:55:50;;;;;;;8.82;6.10;;;19.30;89.00;;;;;;5059538;28;20146;-70
2023/08/24 04:58:16;;;;;;;6.75;4.95;;;19.30;89.00;;;;;;5060647;28;20390;-72
2023/08/24 05:00:42;;;;;;;7.78;5.63;;;19.30;88.70;;;;;;5059269;28;20044;-69
2023/08/24 05:03:07;;;;;;;7.97;5.43;;;19.40;88.60;;;;;;5055654;28;20024;-71
2023/08/24 05:05:34;;;;;;;9.10;6.55;;;19.40;88.30;;;;;;5055811;28;20092;-73
2023/08/24 05:08:01;;;;;;;8.48;6.07;;;19.40;88.20;;;;;;5057878;28;20024;-70
2023/08/24 05:10:30;;;;;;;9.98;6.38;;;19.40;88.20;;;;;;5054557;28;20605;-69
2023/08/24 05:12:56;;;;;;;9.23;5.78;;;19.40;88.40;;;;;;5051216;28;21212;-69
2023/08/24 05:15:22;;;;;;;8.82;5.70;;;19.40;88.30;;;;;;5054569;28;20077;-69
2023/08/24 05:17:48;;;;;;;9.32;5.30;;;19.40;88.30;;;;;;5055443;28;20764;-69
2023/08/24 05:20:13;;;;;;;8.43;6.25;;;19.40;88.40;;;;;;5060969;28;20066;-70
2023/08/24 05:22:39;;;;;;;7.72;5.80;;;19.40;88.20;;;;;;5060301;28;20150;-70
2023/08/24 05:25:05;;;;;;;8.30;4.97;;;19.50;88.00;;;;;;5058245;28;20138;-71
2023/08/24 05:27:31;;;;;;;7.32;5.57;;;19.60;87.70;;;;;;5059613;28;20055;-71
2023/08/24 05:29:57;;;;;;;6.65;5.70;;;19.60;87.40;;;;;;5060209;28;20510;-70
2023/08/24 05:32:23;;;;;;;10.02;6.65;;;19.70;87.20;;;;;;5062477;28;20036;-71
2023/08/24 05:34:48;;;;;;;6.28;4.93;;;19.90;87.40;;;;;;5059137;28;20500;-69
2023/08/24 05:37:14;;;;;;;6.38;4.82;;;20.70;85.90;;;;;;5058118;28;20046;-68
2023/08/24 05:39:40;;;;;;;9.13;6.53;;;21.40;83.30;;;;;;5055244;28;20025;-69
2023/08/24 05:42:06;;;;;;;7.82;5.38;;;21.80;80.50;;;;;;5052847;28;20024;-69
2023/08/24 05:44:32;;;;;;;7.03;5.45;;;22.30;78.60;;;;;;5048109;28;20032;-69
2023/08/24 05:46:57;;;;;;;6.10;5.00;;;22.80;77.10;;;;;;5057073;28;20499;-69
2023/08/24 05:49:23;;;;;;;8.20;5.68;;;23.20;75.00;;;;;;5057641;28;20030;-70
2023/08/24 05:51:50;;;;;;;6.88;4.50;;;22.70;74.50;;;;;;5053340;28;20501;-70
2023/08/24 05:54:18;;;;;;;8.18;4.97;;;22.30;75.40;;;;;;5057538;28;20044;-69
2023/08/24 05:56:44;;;;;;;7.75;5.55;;;21.90;76.60;;;;;;5054297;28;20024;-69
2023/08/24 05:59:10;;;;;;;9.15;5.50;;;21.60;77.60;;;;;;5052368;28;20029;-69
2023/08/24 06:01:38;;;;;;;5.75;4.32;;;21.30;78.60;;;;;;5058513;28;20105;-70
2023/08/24 06:04:05;;;;;;;7.07;4.90;;;21.20;79.30;;;;;;5056109;28;20511;-70
2023/08/24 06:06:31;;;;;;;9.25;6.13;;;21.10;79.80;;;;;;5056677;28;20033;-70
2023/08/24 06:08:56;;;;;;;6.22;5.40;;;21.00;80.30;;;;;;5053748;28;20029;-70
2023/08/24 06:11:22;;;;;;;7.75;5.78;;;21.40;80.40;;;;;;5058828;28;20368;-70
2023/08/24 06:13:49;;;;;;;6.82;5.30;;;22.30;78.40;;;;;;5055656;28;20525;-70
2023/08/24 06:16:14;;;;;;;5.95;4.70;;;23.10;75.50;;;;;;5054538;28;20075;-70
2023/08/24 06:18:40;;;;;;;7.78;6.22;;;23.90;73.00;;;;;;5055225;28;20415;-71
2023/08/24 06:21:05;;;;;;;8.30;5.30;;;24.30;70.40;;;;;;5057524;28;20035;-70
2023/08/24 06:23:31;;;;;;;7.40;5.28;;;24.80;69.10;;;;;;5056688;28;20130;-71
2023/08/24 06:25:56;;;;;;;8.25;6.13;;;25.10;67.80;;;;;;5054423;28;20139;-71
2023/08/24 06:28:22;;;;;;;8.10;5.55;;;25.60;66.40;;;;;;5055139;28;20084;-70
2023/08/24 06:30:48;;;;;;;6.72;5.32;;;25.80;65.30;;;;;;5053832;28;20043;-70
2023/08/24 06:33:13;;;;;;;8.50;6.00;;;25.90;64.70;;;;;;5056711;28;20032;-70
2023/08/24 06:35:40;;;;;;;7.78;5.70;;;26.00;64.30;;;;;;5058622;28;20040;-70
2023/08/24 06:38:06;;;;;;;6.35;4.40;;;26.10;63.80;;;;;;5055440;28;20473;-70
2023/08/24 06:40:31;;;;;;;7.28;4.82;;;26.80;63.40;;;;;;5056807;28;20025;-70
2023/08/24 06:42:57;;;;;;;6.05;5.20;;;27.20;62.10;;;;;;5058472;28;20575;-70
2023/08/24 06:45:23;;;;;;;6.13;5.10;;;27.50;60.80;;;;;;5056363;28;20395;-70
2023/08/24 06:47:49;;;;;;;7.57;4.95;;;27.70;60.40;;;;;;5053773;28;20024;-70
2023/08/24 06:50:15;;;;;;;7.53;5.13;;;28.20;59.60;;;;;;5058569;28;21237;-70
2023/08/24 06:52:41;;;;;;;7.70;4.65;;;28.40;58.40;;;;;;5054682;28;20430;-70
2023/08/24 06:55:09;;;;;;;7.50;5.15;;;28.70;58.40;;;;;;5058004;28;20060;-70
2023/08/24 06:57:34;;;;;;;5.85;4.65;;;29.10;57.50;;;;;;5058399;28;20017;-70
2023/08/24 07:00:00;;;;;;;6.40;4.80;;;29.30;56.80;;;;;;5061480;28;20398;-70
2023/08/24 07:02:26;;;;;;;5.55;4.70;;;29.40;56.40;;;;;;5059607;28;20060;-70
2023/08/24 07:04:51;;;;;;;7.15;5.35;;;29.60;55.70;;;;;;5062049;28;20082;-71
2023/08/24 07:07:17;;;;;;;7.15;5.50;;;29.80;55.60;;;;;;5062781;28;20052;-71
2023/08/24 07:09:42;;;;;;;8.63;4.38;;;29.90;55.00;;;;;;5060681;28;20540;-70
2023/08/24 07:12:10;;;;;;;6.45;4.40;;;30.50;54.90;;;;;;5060071;28;20056;-70
2023/08/24 07:14:36;;;;;;;7.32;5.03;;;30.40;54.00;;;;;;5059238;28;20032;-70
2023/08/24 07:17:02;;;;;;;8.15;5.10;;;30.50;53.90;;;;;;5060737;28;20024;-70
2023/08/24 07:19:28;;;;;;;8.20;5.65;;;30.50;53.50;;;;;;5059345;28;20084;-70
2023/08/24 07:21:53;;;;;;;6.57;4.80;;;30.80;52.60;;;;;;5060921;28;20029;-70
2023/08/24 07:24:20;;;;;;;6.95;4.70;;;31.10;52.50;;;;;;5061529;28;20045;-71
2023/08/24 07:26:46;;;;;;;5.88;4.30;;;30.90;52.00;;;;;;5057697;28;20028;-70
2023/08/24 07:29:12;;;;;;;6.35;4.68;;;30.80;52.50;;;;;;5057973;28;20036;-70
2023/08/24 07:31:38;;;;;;;6.32;4.35;;;31.00;52.10;;;;;;5060663;28;20043;-70
2023/08/24 07:34:04;;;;;;;5.85;4.53;;;31.00;51.90;;;;;;5060722;28;20060;-69
2023/08/24 07:36:30;;;;;;;8.63;4.80;;;31.40;51.70;;;;;;5059842;28;20035;-68
2023/08/24 07:38:56;;;;;;;7.80;3.80;;;31.80;50.90;;;;;;5064227;28;20027;-69
2023/08/24 07:41:22;;;;;;;4.72;3.80;;;31.90;50.60;;;;;;5067107;28;20111;-68
2023/08/24 07:43:47;;;;;;;5.65;4.47;;;32.10;50.50;;;;;;5059773;28;20111;-68
2023/08/24 07:46:13;;;;;;;9.48;5.47;;;32.00;50.20;;;;;;5059022;28;20040;-68
2023/08/24 07:48:39;;;;;;;12.02;5.35;;;31.70;49.70;;;;;;5063030;28;20035;-69
2023/08/24 07:51:05;;;;;;;7.55;4.90;;;31.30;49.80;;;;;;5053969;28;20694;-68
2023/08/24 07:53:32;;;;;;;7.30;5.53;;;31.20;49.70;;;;;;5069195;28;20054;-68
2023/08/24 07:55:58;;;;;;;6.45;4.40;;;31.10;50.00;;;;;;5064760;28;20085;-69
2023/08/24 07:58:25;;;;;;;6.85;4.35;;;31.30;49.80;;;;;;5061265;28;20016;-69
2023/08/24 08:00:51;;;;;;;7.07;4.55;;;31.20;50.10;;;;;;5056060;28;20388;-69
2023/08/24 08:03:20;;;;;;;5.80;4.40;;;31.90;49.70;;;;;;5065373;28;20048;-69
2023/08/24 08:05:47;;;;;;;7.72;5.03;;;31.90;49.30;;;;;;5060245;28;20029;-69
2023/08/24 08:08:15;;;;;;;5.47;4.10;;;31.80;49.40;;;;;;5059338;28;20024;-68
2023/08/24 08:10:41;;;;;;;6.50;4.82;;;32.10;49.20;;;;;;5061737;28;20086;-68
2023/08/24 08:13:08;;;;;;;6.45;5.25;;;31.80;49.10;;;;;;5056351;28;20021;-69
2023/08/24 08:15:33;;;;;;;8.10;5.40;;;31.80;49.10;;;;;;5061035;28;20547;-68
2023/08/24 08:17:59;;;;;;;8.95;5.22;;;31.90;48.70;;;;;;5058163;28;20029;-68
2023/08/24 08:20:25;;;;;;;7.40;4.88;;;31.40;48.90;;;;;;5064793;28;20078;-68
2023/08/24 08:22:50;;;;;;;7.60;5.22;;;31.00;49.90;;;;;;5058239;28;20029;-68
2023/08/24 08:25:17;;;;;;;7.18;5.90;;;30.70;50.30;;;;;;5061403;28;20027;-68
2023/08/24 08:27:43;;;;;;;6.80;4.90;;;30.00;51.30;;;;;;5060289;28;20029;-69
2023/08/24 08:30:10;;;;;;;9.48;5.38;;;29.60;52.70;;;;;;5059795;28;20403;-69
2023/08/24 08:32:35;;;;;;;8.15;5.43;;;29.20;53.50;;;;;;5059247;28;20029;-69
2023/08/24 08:35:04;;;;;;;7.25;5.72;;;28.50;54.70;;;;;;5060340;28;20043;-68
2023/08/24 08:37:32;;;;;;;6.47;4.70;;;28.10;56.10;;;;;;5058787;28;20021;-69
2023/08/24 08:39:57;;;;;;;8.65;5.05;;;27.90;56.90;;;;;;5060143;28;20105;-69
2023/08/24 08:42:23;;;;;;;9.15;5.93;;;27.60;57.60;;;;;;5066155;28;20040;-69
2023/08/24 08:44:49;;;;;;;8.02;5.65;;;27.40;58.40;;;;;;5060728;28;20028;-69
2023/08/24 08:47:15;;;;;;;7.38;5.38;;;27.20;58.90;;;;;;5060076;28;20364;-69
2023/08/24 08:49:47;;;;;;;7.88;6.13;;;27.00;59.60;;;;;;5061546;28;20083;-69
2023/08/24 08:52:13;;;;;;;7.10;5.93;;;26.80;60.00;;;;;;5060801;28;20037;-69
2023/08/24 08:54:38;;;;;;;9.32;5.80;;;26.70;60.90;;;;;;5062625;28;20031;-69
2023/08/24 08:57:04;;;;;;;6.60;5.10;;;26.60;61.30;;;;;;5061923;28;20026;-68
2023/08/24 08:59:31;;;;;;;10.52;6.68;;;26.70;61.90;;;;;;5057609;28;20020;-68
2023/08/24 09:01:58;;;;;;;8.88;6.10;;;26.60;62.00;;;;;;5063815;28;20024;-68
2023/08/24 09:04:24;;;;;;;9.55;6.22;;;26.50;62.40;;;;;;5062529;28;20039;-68
2023/08/24 09:06:50;;;;;;;8.98;6.00;;;26.60;62.50;;;;;;5058747;28;20051;-69
2023/08/24 09:09:16;;;;;;;7.40;5.88;;;26.60;62.90;;;;;;5062425;28;20482;-69
2023/08/24 09:11:47;;;;;;;7.65;6.10;;;26.60;63.40;;;;;;5064502;28;20028;-69
2023/08/24 09:14:12;;;;;;;7.30;5.97;;;26.60;63.00;;;;;;5058972;28;20078;-68
2023/08/24 09:16:39;;;;;;;9.23;6.22;;;26.70;63.00;;;;;;5063101;28;20020;-68
2023/08/24 09:19:06;;;;;;;8.68;5.55;;;26.70;63.10;;;;;;5054056;28;20099;-69
2023/08/24 09:21:37;;;;;;;12.55;7.18;;;26.90;63.10;;;;;;5063263;28;20473;-69
2023/08/24 09:24:03;;;;;;;10.20;6.45;;;26.80;63.40;;;;;;5062141;28;20498;-69
2023/08/24 09:26:33;;;;;;;10.77;7.13;;;26.70;63.30;;;;;;5059795;28;20039;-69
2023/08/24 09:29:00;;;;;;;8.68;5.43;;;26.70;63.40;;;;;;5060412;28;20029;-69
2023/08/24 09:31:37;;;;;;;8.55;6.45;;;26.80;63.60;;;;;;5062040;28;20475;-69
2023/08/24 09:34:03;;;;;;;10.25;6.57;;;26.80;63.60;;;;;;5059220;28;20017;-69
2023/08/24 09:36:33;;;;;;;8.40;6.57;;;26.90;63.70;;;;;;5056921;28;20120;-69
2023/08/24 09:39:00;;;;;;;13.68;8.80;;;26.80;63.60;;;;;;5059956;28;20019;-69
2023/08/24 09:41:50;;;;;;;8.27;6.15;;;26.80;63.70;;;;;;5059266;28;20017;-69
2023/08/24 09:44:18;;;;;;;7.22;5.68;;;26.80;63.80;;;;;;5064662;28;20433;-68
2023/08/24 09:46:44;;;;;;;7.30;5.75;;;26.90;63.60;;;;;;5062017;28;20025;-69
2023/08/24 09:49:11;;;;;;;9.88;7.45;;;27.00;63.40;;;;;;5060499;28;20537;-69
2023/08/24 09:51:44;;;;;;;9.82;6.90;;;26.90;63.40;;;;;;5052900;28;20029;-68
2023/08/24 09:54:10;;;;;;;9.60;6.45;;;26.90;63.10;;;;;;5052910;28;20021;-69
2023/08/24 09:56:40;;;;;;;8.00;5.70;;;26.70;63.10;;;;;;5060484;28;20044;-69
2023/08/24 09:59:18;;;;;;;9.25;7.20;;;26.80;63.20;;;;;;5060072;28;20024;-69
2023/08/24 10:01:49;;;;;;;9.55;7.53;;;26.80;63.30;;;;;;5057793;28;20025;-69
2023/08/24 10:04:17;;;;;;;9.32;6.80;;;26.80;63.00;;;;;;5054267;28;20439;-69
2023/08/24 10:06:44;;;;;;;9.30;6.20;;;26.90;63.10;;;;;;5059802;28;20021;-69
2023/08/24 10:09:31;;;;;;;7.40;5.85;;;26.90;63.40;;;;;;5058792;28;20479;-69
2023/08/24 10:12:03;;;;;;;8.38;5.88;;;26.80;63.20;;;;;;5058931;28;20032;-69
2023/08/24 10:14:43;;;;;;;8.80;6.85;;;26.80;63.90;;;;;;5057895;28;20059;-68
2023/08/24 10:17:10;;;;;;;7.82;5.15;;;26.80;63.60;;;;;;5056784;28;20016;-69
2023/08/24 10:19:37;;;;;;;6.45;4.22;;;26.90;63.50;;;;;;5059939;28;20115;-69
2023/08/24 10:22:03;;;;;;;9.60;5.85;;;27.10;63.40;;;;;;5062075;28;20103;-69
2023/08/24 10:24:31;;;;;;;8.35;6.10;;;27.10;63.10;;;;;;5056052;28;20111;-69
2023/08/24 10:26:59;;;;;;;9.05;6.40;;;27.00;63.00;;;;;;5062020;28;20039;-69
2023/08/24 10:29:27;;;;;;;7.45;5.70;;;27.10;62.90;;;;;;5053963;28;20504;-69
2023/08/24 10:31:54;;;;;;;8.80;6.50;;;27.00;63.00;;;;;;5062025;28;20056;-69
2023/08/24 10:34:19;;;;;;;7.32;4.97;;;26.90;62.80;;;;;;5059513;28;20469;-69
2023/08/24 10:36:48;;;;;;;10.00;5.57;;;26.90;63.20;;;;;;5058473;28;20104;-69
2023/08/24 10:39:14;;;;;;;7.60;4.80;;;27.00;63.30;;;;;;5055557;28;20478;-69
2023/08/24 10:41:50;;;;;;;9.25;5.47;;;26.90;63.40;;;;;;5066387;28;20107;-69
2023/08/24 10:44:25;;;;;;;8.45;5.35;;;26.80;63.60;;;;;;5065440;28;20419;-69
2023/08/24 10:47:20;;;;;;;6.90;5.00;;;26.90;63.90;;;;;;5062479;28;20074;-69
2023/08/24 10:50:06;;;;;;;7.22;5.20;;;26.80;63.80;;;;;;5056631;28;20037;-68
2023/08/24 10:52:39;;;;;;;6.88;4.57;;;26.80;64.00;;;;;;5059014;28;20040;-69
2023/08/24 10:55:21;;;;;;;7.20;4.88;;;26.80;64.20;;;;;;5057258;28;20033;-69
2023/08/24 10:58:01;;;;;;;7.22;4.93;;;26.70;64.30;;;;;;5067150;28;20024;-68
2023/08/24 11:00:31;;;;;;;7.38;4.70;;;26.70;64.60;;;;;;5062186;28;20032;-69
2023/08/24 11:02:57;;;;;;;6.32;4.70;;;26.60;64.80;;;;;;5066912;28;20102;-69
2023/08/24 11:05:29;;;;;;;7.80;4.47;;;26.60;65.00;;;;;;5057738;28;20726;-69
2023/08/24 11:07:56;;;;;;;7.57;5.43;;;26.70;65.00;;;;;;5060147;28;20025;-69
2023/08/24 11:10:23;;;;;;;7.40;5.38;;;26.70;65.10;;;;;;5068619;28;20020;-69
2023/08/24 11:13:11;;;;;;;6.30;4.30;;;26.70;65.20;;;;;;5067991;28;20150;-69
2023/08/24 11:15:45;;;;;;;6.07;4.70;;;26.70;65.30;;;;;;5063683;28;20020;-69
2023/08/24 11:18:31;;;;;;;6.82;5.03;;;26.70;65.30;;;;;;5059632;28;20036;-70
2023/08/24 11:21:05;;;;;;;7.28;4.72;;;26.70;65.40;;;;;;5059670;28;20430;-69
2023/08/24 11:23:31;;;;;;;7.35;5.13;;;26.70;65.30;;;;;;5070270;28;20380;-69
2023/08/24 11:25:59;;;;;;;7.45;5.13;;;26.60;65.30;;;;;;5067685;28;20032;-69
2023/08/24 11:28:29;;;;;;;6.97;5.32;;;26.60;65.50;;;;;;5066698;28;20475;-70
2023/08/24 11:30:56;;;;;;;7.45;4.95;;;26.60;65.70;;;;;;5058706;28;20021;-69
2023/08/24 11:33:35;;;;;;;6.45;4.50;;;26.60;65.80;;;;;;5063821;28;20047;-69
2023/08/24 11:36:03;;;;;;;7.85;5.60;;;26.60;65.70;;;;;;5060442;28;20372;-69
2023/08/24 11:38:52;;;;;;;9.50;5.18;;;26.50;66.10;;;;;;5058827;28;20090;-69
2023/08/24 11:41:19;;;;;;;9.68;4.78;;;26.60;66.20;;;;;;5055331;28;20017;-69
2023/08/24 11:43:47;;;;;;;9.95;4.70;;;26.60;66.00;;;;;;5055984;28;20087;-70
2023/08/24 11:46:13;;;;;;;9.38;4.68;;;26.70;65.80;;;;;;5068536;28;20075;-69
2023/08/24 11:48:42;;;;;;;7.97;4.30;;;26.80;65.60;;;;;;5066466;28;20020;-69
2023/08/24 11:51:12;;;;;;;11.57;4.80;;;26.80;65.40;;;;;;5068175;28;20039;-70
2023/08/24 11:53:45;;;;;;;7.25;4.10;;;26.90;65.80;;;;;;5071258;28;20477;-70
2023/08/24 11:56:12;;;;;;;7.97;4.80;;;26.90;65.00;;;;;;5071432;28;20016;-70
2023/08/24 11:58:42;;;;;;;10.15;4.57;;;26.80;65.10;;;;;;5066650;28;20593;-70
2023/08/24 12:01:09;;;;;;;8.05;4.32;;;26.80;65.10;;;;;;5067067;28;20021;-69
2023/08/24 12:03:38;;;;;;;14.00;5.72;;;26.70;65.10;;;;;;5066538;28;20028;-70
2023/08/24 12:06:15;;;;;;;14.05;4.75;;;26.70;65.10;;;;;;5070304;28;20027;-70
2023/08/24 12:08:43;;;;;;;8.40;4.00;;;26.80;65.10;;;;;;5067107;28;20024;-70
2023/08/24 12:11:12;;;;;;;7.70;5.10;;;26.90;64.90;;;;;;5069181;28;20058;-70
2023/08/24 12:13:42;;;;;;;7.00;3.58;;;26.90;64.60;;;;;;5063774;28;20043;-70
2023/08/24 12:16:08;;;;;;;6.85;4.53;;;27.00;64.50;;;;;;5067787;28;20039;-69
2023/08/24 12:18:45;;;;;;;8.73;4.78;;;26.80;64.30;;;;;;5064110;28;20027;-70
2023/08/24 12:21:13;;;;;;;8.43;4.82;;;26.80;64.40;;;;;;5069776;28;20020;-70
2023/08/24 12:23:38;;;;;;;5.95;4.55;;;26.90;64.50;;;;;;5060856;28;20028;-70
2023/08/24 12:26:07;;;;;;;7.18;4.43;;;27.00;64.50;;;;;;5069454;28;20035;-70
2023/08/24 12:28:33;;;;;;;6.28;4.43;;;27.00;64.50;;;;;;5061684;28;20036;-70
2023/08/24 12:31:03;;;;;;;8.32;4.63;;;27.10;64.60;;;;;;5066601;28;20414;-70
2023/08/24 12:33:34;;;;;;;8.77;5.00;;;27.10;64.30;;;;;;5064550;28;20027;-70
2023/08/24 12:36:00;;;;;;;8.32;4.80;;;27.00;64.40;;;;;;5061288;28;20017;-70
2023/08/24 12:38:27;;;;;;;7.78;5.03;;;26.90;64.60;;;;;;5061998;28;20036;-70
2023/08/24 12:40:53;;;;;;;8.25;4.68;;;26.90;64.90;;;;;;5061279;28;20025;-69
2023/08/24 12:43:19;;;;;;;5.90;3.75;;;26.90;64.90;;;;;;5063703;28;20032;-70
2023/08/24 12:45:44;;;;;;;6.80;4.68;;;27.00;64.90;;;;;;5059506;28;20016;-70
2023/08/24 12:48:10;;;;;;;9.45;4.20;;;27.00;65.40;;;;;;5059815;28;20043;-69